sensor_id;sensor_type;location;lat;lon;timestamp;temperature;humidity
11619;DHT22;5865;48.776;9.280;2023-05-25T00:03:29;9.20;99.90
11619;DHT22;5865;48.776;9.280;2023-05-25T00:05:56;9.20;99.90
11619;DHT22;5865;48.776;9.280;2023-05-25T00:08:27;9.20;99.90
11619;DHT22;5865;48.776;9.280;2023-05-25T00:10:54;9.00;99.90
11619;DHT22;5865;48.776;9.280;2023-05-25T00:15:48;9.30;99.90
11619;DHT22;5865;48.776;9.280;2023-05-25T00:18:15;9.40;99.90
11619;DHT22;5865;48.776;9.280;2023-05-25T00:20:42;9.60;99.90
11619;DHT22;5865;48.776;9.280;2023-05-25T00:23:10;9.60;99.90
11619;DHT22;5865;48.776;9.280;2023-05-25T00:25:38;9.70;99.90
11619;DHT22;5865;48.776;9.280;2023-05-25T00:28:05;9.80;99.90
11619;DHT22;5865;48.776;9.280;2023-05-25T00:30:34;9.80;99.90
11619;DHT22;5865;48.776;9.280;2023-05-25T00:35:29;9.80;99.90
11619;DHT22;5865;48.776;9.280;2023-05-25T00:37:56;10.00;99.90
11619;DHT22;5865;48.776;9.280;2023-05-25T00:40:23;10.00;99.90
11619;DHT22;5865;48.776;9.280;2023-05-25T00:42:52;10.00;99.90
11619;DHT22;5865;48.776;9.280;2023-05-25T00:45:19;10.10;99.90
11619;DHT22;5865;48.776;9.280;2023-05-25T00:47:50;10.10;99.90
11619;DHT22;5865;48.776;9.280;2023-05-25T00:50:21;10.10;99.90
11619;DHT22;5865;48.776;9.280;2023-05-25T00:52:50;10.10;99.90
11619;DHT22;5865;48.776;9.280;2023-05-25T00:55:19;10.00;99.90
11619;DHT22;5865;48.776;9.280;2023-05-25T00:57:49;10.10;99.90
11619;DHT22;5865;48.776;9.280;2023-05-25T01:00:19;10.10;99.90
11619;DHT22;5865;48.776;9.280;2023-05-25T01:02:48;9.80;99.90
11619;DHT22;5865;48.776;9.280;2023-05-25T01:05:18;9.80;99.90
11619;DHT22;5865;48.776;9.280;2023-05-25T01:07:46;9.80;99.90
11619;DHT22;5865;48.776;9.280;2023-05-25T01:10:15;9.80;99.90
11619;DHT22;5865;48.776;9.280;2023-05-25T01:12:43;9.90;99.90
11619;DHT22;5865;48.776;9.280;2023-05-25T01:22:53;9.40;99.90
11619;DHT22;5865;48.776;9.280;2023-05-25T01:25:24;9.20;99.90
11619;DHT22;5865;48.776;9.280;2023-05-25T01:27:55;9.10;99.90
11619;DHT22;5865;48.776;9.280;2023-05-25T01:30:25;9.00;99.90
11619;DHT22;5865;48.776;9.280;2023-05-25T01:32:52;8.90;99.90
11619;DHT22;5865;48.776;9.280;2023-05-25T01:35:20;8.90;99.90
11619;DHT22;5865;48.776;9.280;2023-05-25T01:37:50;8.70;99.90
11619;DHT22;5865;48.776;9.280;2023-05-25T01:42:45;8.50;99.90
11619;DHT22;5865;48.776;9.280;2023-05-25T01:45:12;8.30;99.90
11619;DHT22;5865;48.776;9.280;2023-05-25T01:47:45;8.30;99.90
11619;DHT22;5865;48.776;9.280;2023-05-25T01:50:17;8.30;99.90
11619;DHT22;5865;48.776;9.280;2023-05-25T01:52:54;8.10;99.90
11619;DHT22;5865;48.776;9.280;2023-05-25T01:55:26;8.10;99.90
11619;DHT22;5865;48.776;9.280;2023-05-25T01:57:55;7.80;99.90
11619;DHT22;5865;48.776;9.280;2023-05-25T02:00:25;7.80;99.90
11619;DHT22;5865;48.776;9.280;2023-05-25T02:05:24;7.60;99.90
11619;DHT22;5865;48.776;9.280;2023-05-25T02:07:53;7.40;99.90
11619;DHT22;5865;48.776;9.280;2023-05-25T02:10:20;7.50;99.90
11619;DHT22;5865;48.776;9.280;2023-05-25T02:12:48;7.30;99.90
11619;DHT22;5865;48.776;9.280;2023-05-25T02:15:16;7.20;99.90
11619;DHT22;5865;48.776;9.280;2023-05-25T02:17:44;7.20;99.90
11619;DHT22;5865;48.776;9.280;2023-05-25T02:20:12;7.20;99.90
11619;DHT22;5865;48.776;9.280;2023-05-25T02:25:08;7.10;99.90
11619;DHT22;5865;48.776;9.280;2023-05-25T02:27:35;7.00;99.90
11619;DHT22;5865;48.776;9.280;2023-05-25T02:30:03;6.90;99.90
11619;DHT22;5865;48.776;9.280;2023-05-25T02:32:30;6.80;99.90
11619;DHT22;5865;48.776;9.280;2023-05-25T02:34:58;6.80;99.90
11619;DHT22;5865;48.776;9.280;2023-05-25T02:37:25;6.80;99.90
11619;DHT22;5865;48.776;9.280;2023-05-25T02:39:52;6.70;99.90
11619;DHT22;5865;48.776;9.280;2023-05-25T02:42:21;6.70;99.90
11619;DHT22;5865;48.776;9.280;2023-05-25T02:47:15;6.70;99.90
11619;DHT22;5865;48.776;9.280;2023-05-25T02:57:10;6.60;99.90
11619;DHT22;5865;48.776;9.280;2023-05-25T02:59:38;6.60;99.90
11619;DHT22;5865;48.776;9.280;2023-05-25T03:02:05;6.60;99.90
11619;DHT22;5865;48.776;9.280;2023-05-25T03:07:03;6.70;99.90
11619;DHT22;5865;48.776;9.280;2023-05-25T03:14:28;6.50;99.90
11619;DHT22;5865;48.776;9.280;2023-05-25T03:17:04;6.50;99.90
11619;DHT22;5865;48.776;9.280;2023-05-25T03:19:31;6.50;99.90
11619;DHT22;5865;48.776;9.280;2023-05-25T03:21:58;6.60;99.90
11619;DHT22;5865;48.776;9.280;2023-05-25T03:29:24;6.60;99.90
11619;DHT22;5865;48.776;9.280;2023-05-25T03:31:51;6.60;99.90
11619;DHT22;5865;48.776;9.280;2023-05-25T03:34:24;6.50;99.90
11619;DHT22;5865;48.776;9.280;2023-05-25T03:36:52;6.50;99.90
11619;DHT22;5865;48.776;9.280;2023-05-25T03:39:20;6.40;99.90
11619;DHT22;5865;48.776;9.280;2023-05-25T03:41:49;6.50;99.90
11619;DHT22;5865;48.776;9.280;2023-05-25T03:44:16;6.40;99.90
11619;DHT22;5865;48.776;9.280;2023-05-25T03:46:44;6.40;99.90
11619;DHT22;5865;48.776;9.280;2023-05-25T03:49:12;6.50;99.90
11619;DHT22;5865;48.776;9.280;2023-05-25T03:51:41;6.70;99.90
11619;DHT22;5865;48.776;9.280;2023-05-25T03:54:08;7.00;99.90
11619;DHT22;5865;48.776;9.280;2023-05-25T03:56:35;7.00;99.90
11619;DHT22;5865;48.776;9.280;2023-05-25T04:01:31;7.10;99.90
11619;DHT22;5865;48.776;9.280;2023-05-25T04:03:58;7.30;99.90
11619;DHT22;5865;48.776;9.280;2023-05-25T04:06:25;7.50;99.90
11619;DHT22;5865;48.776;9.280;2023-05-25T04:08:56;7.60;99.90
11619;DHT22;5865;48.776;9.280;2023-05-25T04:13:53;8.10;99.90
11619;DHT22;5865;48.776;9.280;2023-05-25T04:16:22;8.20;99.90
11619;DHT22;5865;48.776;9.280;2023-05-25T04:21:19;8.10;99.90
11619;DHT22;5865;48.776;9.280;2023-05-25T04:26:16;8.00;99.90
11619;DHT22;5865;48.776;9.280;2023-05-25T04:28:44;7.90;99.90
11619;DHT22;5865;48.776;9.280;2023-05-25T04:31:50;7.80;99.90
11619;DHT22;5865;48.776;9.280;2023-05-25T04:34:32;8.00;99.90
11619;DHT22;5865;48.776;9.280;2023-05-25T04:37:04;8.00;99.90
11619;DHT22;5865;48.776;9.280;2023-05-25T04:39:35;8.20;99.90
11619;DHT22;5865;48.776;9.280;2023-05-25T04:42:04;8.20;99.90
11619;DHT22;5865;48.776;9.280;2023-05-25T04:44:32;8.20;99.90
11619;DHT22;5865;48.776;9.280;2023-05-25T04:47:00;8.10;99.90
11619;DHT22;5865;48.776;9.280;2023-05-25T04:49:32;8.10;99.90
11619;DHT22;5865;48.776;9.280;2023-05-25T04:52:00;8.10;99.90
11619;DHT22;5865;48.776;9.280;2023-05-25T04:56:58;8.30;99.90
11619;DHT22;5865;48.776;9.280;2023-05-25T05:04:22;8.60;99.90
11619;DHT22;5865;48.776;9.280;2023-05-25T05:06:49;8.60;99.90
11619;DHT22;5865;48.776;9.280;2023-05-25T05:09:22;8.60;99.90
11619;DHT22;5865;48.776;9.280;2023-05-25T05:16:50;9.30;99.90
11619;DHT22;5865;48.776;9.280;2023-05-25T06:04:18;12.20;99.90
11619;DHT22;5865;48.776;9.280;2023-05-25T06:06:45;12.30;99.90
11619;DHT22;5865;48.776;9.280;2023-05-25T06:14:09;13.00;99.90
11619;DHT22;5865;48.776;9.280;2023-05-25T06:16:36;13.00;99.90
11619;DHT22;5865;48.776;9.280;2023-05-25T06:19:03;13.30;99.90
11619;DHT22;5865;48.776;9.280;2023-05-25T06:24:25;13.10;99.90
11619;DHT22;5865;48.776;9.280;2023-05-25T06:27:05;13.10;99.90
11619;DHT22;5865;48.776;9.280;2023-05-25T06:30:07;12.80;99.90
11619;DHT22;5865;48.776;9.280;2023-05-25T07:15:50;15.30;99.90
11619;DHT22;5865;48.776;9.280;2023-05-25T07:18:32;15.40;99.90
11619;DHT22;5865;48.776;9.280;2023-05-25T09:46:02;19.30;99.90
11619;DHT22;5865;48.776;9.280;2023-05-25T10:35:02;21.80;99.90
11619;DHT22;5865;48.776;9.280;2023-05-25T10:46:53;22.10;98.50
11619;DHT22;5865;48.776;9.280;2023-05-25T10:49:52;22.30;97.20
11619;DHT22;5865;48.776;9.280;2023-05-25T10:58:16;21.80;97.60
11619;DHT22;5865;48.776;9.280;2023-05-25T11:25:35;22.40;95.40
11619;DHT22;5865;48.776;9.280;2023-05-25T11:28:16;23.20;94.80
11619;DHT22;5865;48.776;9.280;2023-05-25T11:30:58;23.20;94.80
11619;DHT22;5865;48.776;9.280;2023-05-25T11:33:34;22.80;95.30
11619;DHT22;5865;48.776;9.280;2023-05-25T11:36:14;23.60;96.00
11619;DHT22;5865;48.776;9.280;2023-05-25T11:39:11;24.00;93.80
11619;DHT22;5865;48.776;9.280;2023-05-25T11:41:54;24.20;93.30
11619;DHT22;5865;48.776;9.280;2023-05-25T11:44:26;24.90;92.30
11619;DHT22;5865;48.776;9.280;2023-05-25T11:47:06;24.90;89.10
11619;DHT22;5865;48.776;9.280;2023-05-25T11:49:49;24.80;89.90
11619;DHT22;5865;48.776;9.280;2023-05-25T11:52:17;23.60;91.00
11619;DHT22;5865;48.776;9.280;2023-05-25T11:57:29;22.90;92.30
11619;DHT22;5865;48.776;9.280;2023-05-25T11:59:58;23.20;93.50
11619;DHT22;5865;48.776;9.280;2023-05-25T12:02:40;24.30;90.90
11619;DHT22;5865;48.776;9.280;2023-05-25T12:05:21;23.80;90.10
11619;DHT22;5865;48.776;9.280;2023-05-25T12:07:49;23.70;92.50
11619;DHT22;5865;48.776;9.280;2023-05-25T12:10:30;23.70;92.50
11619;DHT22;5865;48.776;9.280;2023-05-25T12:13:12;23.70;91.30
11619;DHT22;5865;48.776;9.280;2023-05-25T12:15:41;24.30;89.70
11619;DHT22;5865;48.776;9.280;2023-05-25T12:21:03;24.30;87.30
11619;DHT22;5865;48.776;9.280;2023-05-25T12:26:26;26.00;86.40
11619;DHT22;5865;48.776;9.280;2023-05-25T12:54:53;25.10;82.10
11619;DHT22;5865;48.776;9.280;2023-05-25T13:00:19;25.20;81.60
11619;DHT22;5865;48.776;9.280;2023-05-25T13:03:01;25.20;81.00
11619;DHT22;5865;48.776;9.280;2023-05-25T13:05:42;25.80;79.40
11619;DHT22;5865;48.776;9.280;2023-05-25T13:08:24;25.90;78.10
11619;DHT22;5865;48.776;9.280;2023-05-25T13:14:00;26.40;77.80
11619;DHT22;5865;48.776;9.280;2023-05-25T13:16:42;26.40;77.60
11619;DHT22;5865;48.776;9.280;2023-05-25T13:19:09;26.80;78.60
11619;DHT22;5865;48.776;9.280;2023-05-25T13:21:35;26.70;75.40
11619;DHT22;5865;48.776;9.280;2023-05-25T13:24:09;25.70;77.20
11619;DHT22;5865;48.776;9.280;2023-05-25T13:51:58;28.00;70.50
11619;DHT22;5865;48.776;9.280;2023-05-25T13:54:40;31.20;63.90
11619;DHT22;5865;48.776;9.280;2023-05-25T13:57:22;31.00;59.90
11619;DHT22;5865;48.776;9.280;2023-05-25T14:00:05;28.50;64.80
11619;DHT22;5865;48.776;9.280;2023-05-25T14:02:46;27.00;65.80
11619;DHT22;5865;48.776;9.280;2023-05-25T14:05:42;27.10;67.40
11619;DHT22;5865;48.776;9.280;2023-05-25T14:13:52;25.50;71.80
11619;DHT22;5865;48.776;9.280;2023-05-25T14:16:59;25.20;72.00
11619;DHT22;5865;48.776;9.280;2023-05-25T14:19:41;24.80;73.50
11619;DHT22;5865;48.776;9.280;2023-05-25T14:28:50;28.10;65.60
11619;DHT22;5865;48.776;9.280;2023-05-25T14:31:32;30.60;59.60
11619;DHT22;5865;48.776;9.280;2023-05-25T14:34:15;31.40;56.60
11619;DHT22;5865;48.776;9.280;2023-05-25T14:36:56;32.90;52.60
11619;DHT22;5865;48.776;9.280;2023-05-25T14:39:38;32.70;51.30
11619;DHT22;5865;48.776;9.280;2023-05-25T14:42:20;31.80;53.00
11619;DHT22;5865;48.776;9.280;2023-05-25T15:28:45;32.00;51.80
11619;DHT22;5865;48.776;9.280;2023-05-25T15:31:29;32.70;50.10
11619;DHT22;5865;48.776;9.280;2023-05-25T15:34:14;30.80;50.80
11619;DHT22;5865;48.776;9.280;2023-05-25T15:37:00;31.50;50.60
11619;DHT22;5865;48.776;9.280;2023-05-25T15:40:07;30.40;50.90
11619;DHT22;5865;48.776;9.280;2023-05-25T15:42:55;30.90;51.50
11619;DHT22;5865;48.776;9.280;2023-05-25T15:46:14;29.40;51.80
11619;DHT22;5865;48.776;9.280;2023-05-25T15:49:19;29.90;52.10
11619;DHT22;5865;48.776;9.280;2023-05-25T15:52:01;32.10;50.30
11619;DHT22;5865;48.776;9.280;2023-05-25T15:54:48;33.30;48.10
11619;DHT22;5865;48.776;9.280;2023-05-25T16:06:09;32.90;46.00
11619;DHT22;5865;48.776;9.280;2023-05-25T16:08:50;33.30;45.30
11619;DHT22;5865;48.776;9.280;2023-05-25T16:11:31;33.00;46.60
11619;DHT22;5865;48.776;9.280;2023-05-25T16:14:12;32.20;46.80
11619;DHT22;5865;48.776;9.280;2023-05-25T17:24:40;23.10;64.30
11619;DHT22;5865;48.776;9.280;2023-05-25T17:27:07;22.90;63.10
11619;DHT22;5865;48.776;9.280;2023-05-25T17:29:52;23.00;64.00
11619;DHT22;5865;48.776;9.280;2023-05-25T17:42:40;22.30;65.50
11619;DHT22;5865;48.776;9.280;2023-05-25T17:45:08;22.30;66.10
11619;DHT22;5865;48.776;9.280;2023-05-25T17:47:50;22.10;66.90
11619;DHT22;5865;48.776;9.280;2023-05-25T17:50:32;22.00;66.60
11619;DHT22;5865;48.776;9.280;2023-05-25T17:53:00;22.00;68.10
11619;DHT22;5865;48.776;9.280;2023-05-25T18:01:12;21.90;68.00
11619;DHT22;5865;48.776;9.280;2023-05-25T18:03:41;21.80;68.40
11619;DHT22;5865;48.776;9.280;2023-05-25T18:06:23;21.70;69.80
11619;DHT22;5865;48.776;9.280;2023-05-25T18:09:04;21.70;70.30
11619;DHT22;5865;48.776;9.280;2023-05-25T18:14:28;21.50;70.70
11619;DHT22;5865;48.776;9.280;2023-05-25T18:17:00;21.40;69.80
11619;DHT22;5865;48.776;9.280;2023-05-25T18:19:27;21.30;71.50
11619;DHT22;5865;48.776;9.280;2023-05-25T18:21:55;21.20;70.60
11619;DHT22;5865;48.776;9.280;2023-05-25T18:24:26;20.90;71.50
11619;DHT22;5865;48.776;9.280;2023-05-25T18:32:57;20.30;74.00
11619;DHT22;5865;48.776;9.280;2023-05-25T18:35:27;20.20;75.50
11619;DHT22;5865;48.776;9.280;2023-05-25T18:40:35;19.90;76.50
11619;DHT22;5865;48.776;9.280;2023-05-25T19:10:01;18.10;89.30
11619;DHT22;5865;48.776;9.280;2023-05-25T19:12:39;18.00;89.70
11619;DHT22;5865;48.776;9.280;2023-05-25T19:15:10;17.90;90.80
11619;DHT22;5865;48.776;9.280;2023-05-25T19:17:57;17.90;90.80
11619;DHT22;5865;48.776;9.280;2023-05-25T19:34:53;17.10;95.80
11619;DHT22;5865;48.776;9.280;2023-05-25T19:37:38;17.10;96.10
11619;DHT22;5865;48.776;9.280;2023-05-25T19:40:20;17.00;96.80
11619;DHT22;5865;48.776;9.280;2023-05-25T19:43:04;16.90;97.50
11619;DHT22;5865;48.776;9.280;2023-05-25T19:45:45;16.90;97.80
11619;DHT22;5865;48.776;9.280;2023-05-25T20:08:41;16.10;99.90
11619;DHT22;5865;48.776;9.280;2023-05-25T20:11:24;16.60;99.90
11619;DHT22;5865;48.776;9.280;2023-05-25T20:16:34;16.70;99.90
11619;DHT22;5865;48.776;9.280;2023-05-25T20:19:14;16.60;99.90
11619;DHT22;5865;48.776;9.280;2023-05-25T20:21:55;16.60;99.90
11619;DHT22;5865;48.776;9.280;2023-05-25T20:24:36;16.60;99.90
11619;DHT22;5865;48.776;9.280;2023-05-25T20:27:17;16.40;99.90
11619;DHT22;5865;48.776;9.280;2023-05-25T20:39:35;15.70;99.90
11619;DHT22;5865;48.776;9.280;2023-05-25T20:42:16;15.50;99.90
11619;DHT22;5865;48.776;9.280;2023-05-25T20:44:57;15.50;99.90
11619;DHT22;5865;48.776;9.280;2023-05-25T20:47:28;15.60;99.90
11619;DHT22;5865;48.776;9.280;2023-05-25T20:50:09;15.50;99.90
11619;DHT22;5865;48.776;9.280;2023-05-25T20:52:36;15.40;99.90
11619;DHT22;5865;48.776;9.280;2023-05-25T21:01:42;14.90;99.90
11619;DHT22;5865;48.776;9.280;2023-05-25T21:04:23;14.60;99.90
11619;DHT22;5865;48.776;9.280;2023-05-25T21:06:50;14.40;99.90
11619;DHT22;5865;48.776;9.280;2023-05-25T21:09:31;14.20;99.90
11619;DHT22;5865;48.776;9.280;2023-05-25T21:12:12;14.10;99.90
11619;DHT22;5865;48.776;9.280;2023-05-25T21:14:53;14.10;99.90
11619;DHT22;5865;48.776;9.280;2023-05-25T21:30:21;14.50;99.90
11619;DHT22;5865;48.776;9.280;2023-05-25T21:33:02;15.00;99.90
11619;DHT22;5865;48.776;9.280;2023-05-25T21:35:33;15.00;99.90
11619;DHT22;5865;48.776;9.280;2023-05-25T21:49:41;14.10;99.90
11619;DHT22;5865;48.776;9.280;2023-05-25T21:52:22;14.00;99.90
11619;DHT22;5865;48.776;9.280;2023-05-25T21:55:03;13.60;99.90
11619;DHT22;5865;48.776;9.280;2023-05-25T21:57:31;13.60;99.90
11619;DHT22;5865;48.776;9.280;2023-05-25T21:59:58;13.50;99.90
11619;DHT22;5865;48.776;9.280;2023-05-25T22:08:22;13.10;99.90
11619;DHT22;5865;48.776;9.280;2023-05-25T22:11:03;12.90;99.90
11619;DHT22;5865;48.776;9.280;2023-05-25T22:13:44;12.70;99.90
11619;DHT22;5865;48.776;9.280;2023-05-25T22:16:25;12.50;99.90
11619;DHT22;5865;48.776;9.280;2023-05-25T22:19:06;12.50;99.90
11619;DHT22;5865;48.776;9.280;2023-05-25T22:21:47;12.40;99.90
11619;DHT22;5865;48.776;9.280;2023-05-25T22:24:27;12.30;99.90
11619;DHT22;5865;48.776;9.280;2023-05-25T22:26:57;12.20;99.90
11619;DHT22;5865;48.776;9.280;2023-05-25T22:29:38;12.20;99.90
11619;DHT22;5865;48.776;9.280;2023-05-25T22:34:45;12.00;99.90
11619;DHT22;5865;48.776;9.280;2023-05-25T22:40:01;11.80;99.90
11619;DHT22;5865;48.776;9.280;2023-05-25T22:45:14;11.70;99.90
11619;DHT22;5865;48.776;9.280;2023-05-25T22:47:42;11.70;99.90
11619;DHT22;5865;48.776;9.280;2023-05-25T22:50:22;11.80;99.90
11619;DHT22;5865;48.776;9.280;2023-05-25T23:11:22;11.60;99.90
11619;DHT22;5865;48.776;9.280;2023-05-25T23:14:03;11.40;99.90
11619;DHT22;5865;48.776;9.280;2023-05-25T23:24:36;11.40;99.90
